createdAt,value
2022-08-12T00:02:44.556Z,16.00
2022-08-12T00:05:33.762Z,15.80
2022-08-12T00:08:28.879Z,15.70
2022-08-12T00:11:22.478Z,15.80
2022-08-12T00:14:08.116Z,15.90
2022-08-12T00:16:55.154Z,15.90
2022-08-12T00:19:40.944Z,15.80
2022-08-12T00:22:28.690Z,15.70
2022-08-12T00:25:18.048Z,15.50
2022-08-12T00:28:05.574Z,15.40
2022-08-12T00:30:51.343Z,15.30
2022-08-12T00:33:51.605Z,15.20
2022-08-12T00:36:43.782Z,15.00
2022-08-12T00:39:32.416Z,14.90
2022-08-12T00:42:11.731Z,15.10
2022-08-12T00:44:43.168Z,15.20
2022-08-12T00:47:25.182Z,15.00
2022-08-12T00:49:55.305Z,15.10
2022-08-12T00:52:23.863Z,15.00
2022-08-12T00:54:54.979Z,14.90
2022-08-12T00:57:25.223Z,14.90
2022-08-12T00:59:54.990Z,14.80
2022-08-12T01:02:25.901Z,14.70
2022-08-12T01:05:13.692Z,14.70
2022-08-12T01:08:00.020Z,14.60
2022-08-12T01:10:48.831Z,14.60
2022-08-12T01:13:19.479Z,14.60
2022-08-12T01:15:50.439Z,14.80
2022-08-12T01:18:20.296Z,14.70
2022-08-12T01:20:54.685Z,14.70
2022-08-12T01:23:47.309Z,14.50
2022-08-12T01:26:19.660Z,14.50
2022-08-12T01:28:50.515Z,14.40
2022-08-12T01:31:20.253Z,14.40
2022-08-12T01:33:59.754Z,14.20
2022-08-12T01:36:29.199Z,14.20
2022-08-12T01:39:00.074Z,14.20
2022-08-12T01:41:31.642Z,14.20
2022-08-12T01:44:02.294Z,14.20
2022-08-12T01:46:40.579Z,14.30
2022-08-12T01:49:28.826Z,14.20
2022-08-12T01:52:21.119Z,14.00
2022-08-12T01:54:52.565Z,14.00
2022-08-12T01:57:58.827Z,13.90
2022-08-12T02:00:20.652Z,13.80
2022-08-12T02:03:16.313Z,13.80
2022-08-12T02:06:11.517Z,13.90
2022-08-12T02:09:04.151Z,13.80
2022-08-12T02:11:34.768Z,13.80
2022-08-12T02:14:36.333Z,13.80
2022-08-12T02:17:21.050Z,13.70
2022-08-12T02:20:21.797Z,13.60
2022-08-12T02:22:51.604Z,13.60
2022-08-12T02:25:26.711Z,13.70
2022-08-12T02:27:56.835Z,13.60
2022-08-12T02:30:41.512Z,13.60
2022-08-12T02:33:11.707Z,13.60
2022-08-12T02:35:40.187Z,13.50
2022-08-12T02:38:10.109Z,13.50
2022-08-12T02:40:41.356Z,13.40
2022-08-12T02:43:15.782Z,13.40
2022-08-12T02:45:53.475Z,13.30
2022-08-12T02:48:25.752Z,13.60
2022-08-12T02:50:57.438Z,13.70
2022-08-12T02:53:27.959Z,13.60
2022-08-12T02:55:57.392Z,13.50
2022-08-12T02:58:33.004Z,13.40
2022-08-12T03:01:04.656Z,13.30
2022-08-12T03:03:34.839Z,13.20
2022-08-12T03:06:07.068Z,13.20
2022-08-12T03:08:40.773Z,13.20
2022-08-12T03:11:15.072Z,13.10
2022-08-12T03:13:46.919Z,13.10
2022-08-12T03:16:16.106Z,13.00
2022-08-12T03:18:45.953Z,13.00
2022-08-12T03:21:16.906Z,13.20
2022-08-12T03:23:46.213Z,13.10
2022-08-12T03:26:15.605Z,13.10
2022-08-12T03:28:54.152Z,13.00
2022-08-12T03:31:25.886Z,12.90
2022-08-12T03:34:01.504Z,12.90
2022-08-12T03:36:33.465Z,12.80
2022-08-12T03:39:36.239Z,12.80
2022-08-12T03:42:17.429Z,12.80
2022-08-12T03:45:10.298Z,12.80
2022-08-12T03:48:02.510Z,12.70
2022-08-12T03:50:49.046Z,12.70
2022-08-12T03:53:41.134Z,12.60
2022-08-12T03:56:26.810Z,12.60
2022-08-12T03:59:13.666Z,12.60
2022-08-12T04:01:41.843Z,12.60
2022-08-12T04:04:11.544Z,12.60
2022-08-12T04:06:45.246Z,12.60
2022-08-12T04:09:15.795Z,12.60
2022-08-12T04:12:03.568Z,12.60
2022-08-12T04:14:31.846Z,12.60
2022-08-12T04:16:59.738Z,12.60
2022-08-12T04:19:29.509Z,12.60
2022-08-12T04:22:01.939Z,12.60
2022-08-12T04:24:34.915Z,12.60
2022-08-12T04:27:05.131Z,12.70
2022-08-12T04:30:31.011Z,12.70
2022-08-12T04:32:22.210Z,12.70
2022-08-12T04:34:51.476Z,12.80
2022-08-12T04:37:19.637Z,12.80
2022-08-12T04:39:48.102Z,12.70
2022-08-12T04:42:16.111Z,12.70
2022-08-12T04:44:44.419Z,12.70
2022-08-12T04:47:14.151Z,12.70
2022-08-12T04:49:44.178Z,12.80
2022-08-12T04:52:14.103Z,12.90
2022-08-12T04:54:44.060Z,12.90
2022-08-12T04:57:12.260Z,13.00
2022-08-12T04:59:46.991Z,13.00
2022-08-12T05:02:21.226Z,13.20
2022-08-12T05:04:50.933Z,13.30
2022-08-12T05:07:20.112Z,13.30
2022-08-12T05:10:00.884Z,13.40
2022-08-12T05:12:36.438Z,13.50
2022-08-12T05:15:19.191Z,13.60
2022-08-12T05:17:53.587Z,13.70
2022-08-12T05:20:22.646Z,13.80
2022-08-12T05:22:52.245Z,13.90
2022-08-12T05:25:25.436Z,14.00
2022-08-12T05:27:57.931Z,14.20
2022-08-12T05:30:27.157Z,14.20
2022-08-12T05:32:59.809Z,14.30
2022-08-12T05:35:28.670Z,14.50
2022-08-12T05:38:11.758Z,14.70
2022-08-12T05:40:39.571Z,14.80
2022-08-12T05:43:08.095Z,14.90
2022-08-12T05:45:35.835Z,15.00
2022-08-12T05:48:03.731Z,15.00
2022-08-12T05:50:31.481Z,15.20
2022-08-12T05:53:00.550Z,15.30
2022-08-12T05:55:31.440Z,15.40
2022-08-12T05:58:00.166Z,15.50
2022-08-12T06:00:29.398Z,15.70
2022-08-12T06:03:01.204Z,15.90
2022-08-12T06:05:29.309Z,15.90
2022-08-12T06:08:01.857Z,16.10
2022-08-12T06:10:32.936Z,16.20
2022-08-12T06:13:02.515Z,16.40
2022-08-12T06:15:31.242Z,16.50
2022-08-12T06:18:13.635Z,16.60
2022-08-12T06:20:44.265Z,16.80
2022-08-12T06:23:12.134Z,17.00
2022-08-12T06:25:42.094Z,17.10
2022-08-12T06:28:17.347Z,17.30
2022-08-12T06:30:53.127Z,17.40
2022-08-12T06:33:55.881Z,17.50
2022-08-12T06:36:22.628Z,17.70
2022-08-12T06:38:50.571Z,17.80
2022-08-12T06:41:37.109Z,18.10
2022-08-12T06:44:08.051Z,18.20
2022-08-12T06:46:38.826Z,18.40
2022-08-12T06:49:07.136Z,18.70
2022-08-12T06:51:34.968Z,18.90
2022-08-12T06:54:02.952Z,19.00
2022-08-12T06:57:02.573Z,19.10
2022-08-12T06:59:21.225Z,19.40
2022-08-12T07:01:51.176Z,19.50
2022-08-12T07:04:38.015Z,19.70
2022-08-12T07:07:07.073Z,20.00
2022-08-12T07:10:03.763Z,20.20
2022-08-12T07:12:26.601Z,20.50
2022-08-12T07:14:56.321Z,20.70
2022-08-12T07:17:24.244Z,21.00
2022-08-12T07:19:53.549Z,21.20
2022-08-12T07:22:23.269Z,21.40
2022-08-12T07:25:11.448Z,21.70
2022-08-12T07:27:42.647Z,21.80
2022-08-12T07:30:12.144Z,22.00
2022-08-12T07:32:40.506Z,22.20
2022-08-12T07:35:09.285Z,22.40
2022-08-12T07:37:41.874Z,22.60
2022-08-12T07:40:11.607Z,22.80
2022-08-12T07:42:42.016Z,22.80
2022-08-12T07:45:11.015Z,23.10
2022-08-12T07:47:43.227Z,23.30
2022-08-12T07:50:12.121Z,23.40
2022-08-12T07:52:42.780Z,23.50
2022-08-12T07:55:12.118Z,23.70
2022-08-12T07:57:52.432Z,23.90
2022-08-12T08:00:20.893Z,24.10
2022-08-12T08:02:49.288Z,24.30
2022-08-12T08:05:18.622Z,24.40
2022-08-12T08:07:46.401Z,24.60
2022-08-12T08:10:14.468Z,24.90
2022-08-12T08:12:58.617Z,25.10
2022-08-12T08:16:00.750Z,25.30
2022-08-12T08:18:26.789Z,25.50
2022-08-12T08:20:56.983Z,25.50
2022-08-12T08:23:55.840Z,25.60
2022-08-12T08:26:24.843Z,25.80
2022-08-12T08:28:53.048Z,26.20
2022-08-12T08:31:22.473Z,26.80
2022-08-12T08:34:09.719Z,28.20
2022-08-12T08:36:40.138Z,31.20
2022-08-12T08:39:13.859Z,35.30
2022-08-12T08:42:18.912Z,37.90
2022-08-12T08:44:47.113Z,40.10
2022-08-12T08:47:21.961Z,42.00
2022-08-12T08:49:49.738Z,43.10
2022-08-12T08:52:39.713Z,44.00
2022-08-12T08:55:09.696Z,44.20
2022-08-12T08:57:42.963Z,44.20
2022-08-12T09:00:15.341Z,44.00
2022-08-12T09:02:49.475Z,44.30
2022-08-12T09:05:27.220Z,44.30
2022-08-12T09:10:44.894Z,44.70
2022-08-12T09:13:29.121Z,44.80
2022-08-12T09:16:20.011Z,44.70
2022-08-12T09:18:52.673Z,45.50
2022-08-12T09:21:23.094Z,45.50
2022-08-12T09:26:46.227Z,45.80
2022-08-12T09:29:15.263Z,45.70
2022-08-12T09:32:06.804Z,44.80
2022-08-12T09:34:36.274Z,44.20
2022-08-12T09:37:19.312Z,44.20
2022-08-12T09:40:06.092Z,44.30
2022-08-12T09:43:15.542Z,44.60
2022-08-12T09:46:06.606Z,45.30
2022-08-12T09:48:35.992Z,44.90
2022-08-12T09:51:17.116Z,42.50
2022-08-12T09:54:09.113Z,42.90
2022-08-12T09:56:58.968Z,43.50
2022-08-12T10:00:15.232Z,44.20
2022-08-12T10:02:43.054Z,43.60
2022-08-12T10:05:02.784Z,41.70
2022-08-12T10:07:39.724Z,39.90
2022-08-12T10:10:22.735Z,38.80
2022-08-12T10:13:12.808Z,39.20
2022-08-12T10:16:01.764Z,40.50
2022-08-12T10:18:32.800Z,41.60
2022-08-12T10:21:07.346Z,42.00
2022-08-12T10:23:40.239Z,41.60
2022-08-12T10:26:37.620Z,40.40
2022-08-12T10:30:38.784Z,41.70
2022-08-12T10:32:21.538Z,42.20
2022-08-12T10:35:04.692Z,42.80
2022-08-12T10:38:34.303Z,43.00
2022-08-12T10:40:28.661Z,43.10
2022-08-12T10:43:16.610Z,42.80
2022-08-12T10:45:47.150Z,42.40
2022-08-12T10:48:21.324Z,41.50
2022-08-12T10:51:01.161Z,41.20
2022-08-12T10:53:45.843Z,40.80
2022-08-12T10:56:16.294Z,40.30
2022-08-12T10:58:47.254Z,39.20
2022-08-12T11:01:49.747Z,37.70
2022-08-12T11:04:23.561Z,36.30
2022-08-12T11:07:08.268Z,34.40
2022-08-12T11:09:59.650Z,33.10
2022-08-12T11:12:55.939Z,32.10
2022-08-12T11:15:32.958Z,31.80
2022-08-12T11:18:18.477Z,31.90
2022-08-12T11:20:48.107Z,32.00
2022-08-12T11:23:25.344Z,32.30
2022-08-12T11:26:06.243Z,32.60
2022-08-12T11:28:38.199Z,33.00
2022-08-12T11:31:11.866Z,33.10
2022-08-12T11:34:05.426Z,32.80
2022-08-12T11:36:30.669Z,32.10
2022-08-12T11:39:05.123Z,31.50
2022-08-12T11:41:34.601Z,31.30
2022-08-12T11:44:33.359Z,31.30
2022-08-12T11:46:54.546Z,31.40
2022-08-12T11:49:31.016Z,31.60
2022-08-12T11:52:01.386Z,31.80
2022-08-12T11:54:30.268Z,32.00
2022-08-12T11:56:59.848Z,32.20
2022-08-12T12:02:20.431Z,32.30
2022-08-12T12:04:53.100Z,32.40
2022-08-12T12:08:36.674Z,32.40
2022-08-12T12:10:12.297Z,32.40
2022-08-12T12:12:41.555Z,32.20
2022-08-12T12:15:25.322Z,32.00
2022-08-12T12:18:07.323Z,32.00
2022-08-12T12:20:40.602Z,32.30
2022-08-12T12:23:08.518Z,32.00
2022-08-12T12:26:07.098Z,32.00
2022-08-12T12:28:38.170Z,31.60
2022-08-12T12:31:15.197Z,31.50
2022-08-12T12:33:58.849Z,31.80
2022-08-12T12:36:30.752Z,32.20
2022-08-12T12:39:00.138Z,32.50
2022-08-12T12:42:54.348Z,32.70
2022-08-12T12:44:26.057Z,32.50
2022-08-12T12:47:17.853Z,32.30
2022-08-12T12:49:53.920Z,32.50
2022-08-12T12:52:26.935Z,32.70
2022-08-12T12:54:55.455Z,32.90
2022-08-12T12:57:36.420Z,32.70
2022-08-12T13:00:18.377Z,32.20
2022-08-12T13:02:53.937Z,31.80
2022-08-12T13:05:27.515Z,31.50
2022-08-12T13:08:01.113Z,31.20
2022-08-12T13:10:36.490Z,31.00
2022-08-12T13:14:09.118Z,30.70
2022-08-12T13:15:59.238Z,30.40
2022-08-12T13:18:36.363Z,30.30
2022-08-12T13:21:05.895Z,30.40
2022-08-12T13:23:45.769Z,30.60
2022-08-12T13:26:17.210Z,30.60
2022-08-12T13:28:49.673Z,30.60
2022-08-12T13:31:22.109Z,30.60
2022-08-12T13:34:33.784Z,30.50
2022-08-12T13:36:42.182Z,30.60
2022-08-12T13:39:12.252Z,30.60
2022-08-12T13:41:44.586Z,30.60
2022-08-12T13:44:13.010Z,30.40
2022-08-12T13:46:42.152Z,30.30
2022-08-12T13:49:20.432Z,30.30
2022-08-12T13:52:01.584Z,30.20
2022-08-12T13:54:29.664Z,30.10
2022-08-12T13:56:57.924Z,29.80
2022-08-12T13:59:26.737Z,29.80
2022-08-12T14:01:56.890Z,29.90
2022-08-12T14:04:27.359Z,30.00
2022-08-12T14:06:55.273Z,30.20
2022-08-12T14:09:23.063Z,30.10
2022-08-12T14:11:59.318Z,30.00
2022-08-12T14:14:31.561Z,30.10
2022-08-12T14:17:05.466Z,30.20
2022-08-12T14:19:39.238Z,30.20
2022-08-12T14:22:19.187Z,30.30
2022-08-12T14:24:46.991Z,30.20
2022-08-12T14:27:14.879Z,30.20
2022-08-12T14:30:17.092Z,30.40
2022-08-12T14:32:51.970Z,30.40
2022-08-12T14:35:21.937Z,30.60
2022-08-12T14:37:56.106Z,30.50
2022-08-12T14:40:28.320Z,30.40
2022-08-12T14:42:57.461Z,30.50
2022-08-12T14:45:44.448Z,30.40
2022-08-12T14:48:15.161Z,30.50
2022-08-12T14:52:10.257Z,30.30
2022-08-12T14:59:57.985Z,30.00
2022-08-12T15:02:20.653Z,29.90
2022-08-12T15:04:58.753Z,29.90
2022-08-12T15:07:43.845Z,29.80
2022-08-12T15:10:25.454Z,29.60
2022-08-12T15:13:06.921Z,29.50
2022-08-12T15:15:38.577Z,29.60
2022-08-12T15:18:13.733Z,29.60
2022-08-12T15:20:41.972Z,29.60
2022-08-12T15:23:17.362Z,29.60
2022-08-12T15:25:47.722Z,29.60
2022-08-12T15:28:21.333Z,29.70
2022-08-12T15:30:52.277Z,29.80
2022-08-12T15:33:24.301Z,29.70
2022-08-12T15:35:53.939Z,29.60
2022-08-12T15:38:27.114Z,29.40
2022-08-12T15:40:57.512Z,29.40
2022-08-12T15:43:51.356Z,29.40
2022-08-12T15:46:16.536Z,29.40
2022-08-12T15:48:47.078Z,29.30
2022-08-12T15:51:58.112Z,29.30
2022-08-12T15:54:34.312Z,29.40
2022-08-12T15:57:05.854Z,29.30
2022-08-12T16:00:00.099Z,29.30
2022-08-12T16:02:26.939Z,29.30
2022-08-12T16:04:55.272Z,29.30
2022-08-12T16:07:25.964Z,29.30
2022-08-12T16:10:05.750Z,29.20
2022-08-12T16:12:43.395Z,29.30
2022-08-12T16:15:13.326Z,29.30
2022-08-12T16:18:15.449Z,29.20
2022-08-12T16:20:33.598Z,29.30
2022-08-12T16:23:04.158Z,29.20
2022-08-12T16:26:02.794Z,29.30
2022-08-12T16:28:22.653Z,29.30
2022-08-12T16:30:56.174Z,29.30
2022-08-12T16:33:35.732Z,29.30
2022-08-12T16:36:21.832Z,29.30
2022-08-12T16:38:49.561Z,29.20
2022-08-12T16:41:22.644Z,29.20
2022-08-12T16:43:53.411Z,29.00
2022-08-12T16:46:31.561Z,29.00
2022-08-12T16:49:08.698Z,28.80
2022-08-12T16:51:37.510Z,28.60
2022-08-12T16:54:12.788Z,28.40
2022-08-12T16:56:50.875Z,28.30
2022-08-12T16:59:23.936Z,28.10
2022-08-12T17:01:51.970Z,28.00
2022-08-12T17:04:24.274Z,27.90
2022-08-12T17:06:52.834Z,28.00
2022-08-12T17:09:20.697Z,28.00
2022-08-12T17:11:50.471Z,28.00
2022-08-12T17:14:20.341Z,27.90
2022-08-12T17:16:52.605Z,27.80
2022-08-12T17:20:02.437Z,27.70
2022-08-12T17:22:10.673Z,27.60
2022-08-12T17:24:44.052Z,27.50
2022-08-12T17:27:24.551Z,27.40
2022-08-12T17:30:02.097Z,27.40
2022-08-12T17:32:35.828Z,27.30
2022-08-12T17:35:23.415Z,27.00
2022-08-12T17:38:02.103Z,27.00
2022-08-12T17:40:34.545Z,27.00
2022-08-12T17:43:55.813Z,26.90
2022-08-12T17:45:59.097Z,26.80
2022-08-12T17:48:34.833Z,26.70
2022-08-12T17:51:16.014Z,26.70
2022-08-12T17:54:10.586Z,26.60
2022-08-12T17:56:37.276Z,26.60
2022-08-12T17:59:12.558Z,26.50
2022-08-12T18:01:45.312Z,26.40
2022-08-12T18:04:21.391Z,26.30
2022-08-12T18:06:51.783Z,26.10
2022-08-12T18:09:19.622Z,25.90
2022-08-12T18:12:08.349Z,25.90
2022-08-12T18:14:41.293Z,25.90
2022-08-12T18:17:16.300Z,25.90
2022-08-12T18:20:05.693Z,25.80
2022-08-12T18:22:33.248Z,25.70
2022-08-12T18:25:05.186Z,25.70
2022-08-12T18:27:44.596Z,25.60
2022-08-12T18:30:29.203Z,25.40
2022-08-12T18:33:03.829Z,25.30
2022-08-12T18:35:47.519Z,25.30
2022-08-12T18:38:25.108Z,25.10
2022-08-12T18:41:21.611Z,24.90
2022-08-12T18:43:59.871Z,24.80
2022-08-12T18:46:47.235Z,24.70
2022-08-12T18:49:20.044Z,24.50
2022-08-12T18:52:03.867Z,24.40
2022-08-12T18:54:35.670Z,24.20
2022-08-12T18:57:16.476Z,24.10
2022-08-12T19:00:00.119Z,24.00
2022-08-12T19:02:36.330Z,23.90
2022-08-12T19:05:10.090Z,23.80
2022-08-12T19:07:49.890Z,23.70
2022-08-12T19:10:29.903Z,23.80
2022-08-12T19:13:27.070Z,23.70
2022-08-12T19:16:10.109Z,23.60
2022-08-12T19:18:44.855Z,23.50
2022-08-12T19:21:16.027Z,23.40
2022-08-12T19:24:04.646Z,23.30
2022-08-12T19:26:32.509Z,23.20
2022-08-12T19:29:00.569Z,23.20
2022-08-12T19:31:45.265Z,23.20
2022-08-12T19:35:00.337Z,23.20
2022-08-12T19:37:26.575Z,23.10
2022-08-12T19:40:09.345Z,22.90
2022-08-12T19:43:01.072Z,22.70
2022-08-12T19:45:43.576Z,22.60
2022-08-12T19:48:18.129Z,22.60
2022-08-12T19:50:50.339Z,22.50
2022-08-12T19:53:22.590Z,22.40
2022-08-12T19:55:53.306Z,22.30
2022-08-12T19:58:22.305Z,22.10
2022-08-12T20:00:53.121Z,22.00
2022-08-12T20:03:38.664Z,21.90
2022-08-12T20:06:14.142Z,21.80
2022-08-12T20:08:48.652Z,21.80
2022-08-12T20:12:13.146Z,21.70
2022-08-12T20:14:11.657Z,21.60
2022-08-12T20:16:51.730Z,21.60
2022-08-12T20:19:24.829Z,21.50
2022-08-12T20:22:24.513Z,21.40
2022-08-12T20:24:57.882Z,21.40
2022-08-12T20:28:03.355Z,21.40
2022-08-12T20:30:16.757Z,21.50
2022-08-12T20:32:55.034Z,21.60
2022-08-12T20:35:39.087Z,21.60
2022-08-12T20:38:27.497Z,21.60
2022-08-12T20:40:56.400Z,21.50
2022-08-12T20:43:28.437Z,21.40
2022-08-12T20:46:00.081Z,21.30
2022-08-12T20:48:29.530Z,21.20
2022-08-12T20:50:58.051Z,21.10
2022-08-12T20:53:57.997Z,21.00
2022-08-12T20:56:31.206Z,20.90
2022-08-12T20:59:00.998Z,20.90
2022-08-12T21:01:46.748Z,20.80
2022-08-12T21:04:34.870Z,20.80
2022-08-12T21:07:09.767Z,20.60
2022-08-12T21:09:42.428Z,20.60
2022-08-12T21:12:31.483Z,20.60
2022-08-12T21:15:23.354Z,20.50
2022-08-12T21:18:00.686Z,20.50
2022-08-12T21:20:41.917Z,20.40
2022-08-12T21:23:09.896Z,20.20
2022-08-12T21:25:45.178Z,20.00
2022-08-12T21:28:14.031Z,19.90
2022-08-12T21:31:11.040Z,19.70
2022-08-12T21:33:32.129Z,19.70
2022-08-12T21:36:22.701Z,19.60
2022-08-12T21:39:01.990Z,19.50
2022-08-12T21:41:51.090Z,19.40
2022-08-12T21:44:32.484Z,19.30
2022-08-12T21:47:20.297Z,19.20
2022-08-12T21:49:55.352Z,19.20
2022-08-12T21:52:28.257Z,19.10
2022-08-12T21:55:02.939Z,19.00
2022-08-12T21:57:36.451Z,19.00
2022-08-12T22:00:19.768Z,18.80
2022-08-12T22:03:05.537Z,18.90
2022-08-12T22:05:53.411Z,18.80
2022-08-12T22:08:22.099Z,18.70
2022-08-12T22:10:52.224Z,18.70
2022-08-12T22:14:02.144Z,18.80
2022-08-12T22:16:09.408Z,19.10
2022-08-12T22:18:40.448Z,19.30
2022-08-12T22:21:09.073Z,19.30
2022-08-12T22:23:52.080Z,19.30
2022-08-12T22:26:37.024Z,19.20
2022-08-12T22:29:26.842Z,19.10
2022-08-12T22:31:55.465Z,19.10
2022-08-12T22:34:29.723Z,19.20
2022-08-12T22:37:00.909Z,19.20
2022-08-12T22:39:28.711Z,19.00
2022-08-12T22:42:19.947Z,18.90
2022-08-12T22:45:14.496Z,18.80
2022-08-12T22:47:55.354Z,18.60
2022-08-12T22:50:27.221Z,18.70
2022-08-12T22:53:14.599Z,18.50
2022-08-12T22:56:00.650Z,18.50
2022-08-12T22:58:33.348Z,18.50
2022-08-12T23:01:03.252Z,18.60
2022-08-12T23:03:48.314Z,18.60
2022-08-12T23:06:18.440Z,18.50
2022-08-12T23:08:47.929Z,18.40
2022-08-12T23:11:17.898Z,18.40
2022-08-12T23:13:55.317Z,18.50
2022-08-12T23:16:31.663Z,18.50
2022-08-12T23:19:10.074Z,18.40
2022-08-12T23:22:06.683Z,18.30
2022-08-12T23:24:39.333Z,18.40
2022-08-12T23:27:44.384Z,18.30
2022-08-12T23:30:18.936Z,18.30
2022-08-12T23:32:59.557Z,18.10
2022-08-12T23:35:45.270Z,18.00
2022-08-12T23:38:18.981Z,17.90
2022-08-12T23:40:58.270Z,17.80
2022-08-12T23:43:26.366Z,17.70
2022-08-12T23:46:09.100Z,17.60
2022-08-12T23:48:38.697Z,17.60
2022-08-12T23:51:23.040Z,17.40
2022-08-12T23:53:55.047Z,17.30
2022-08-12T23:56:23.613Z,17.30
2022-08-12T23:58:52.860Z,17.30
